Open Full Screen Window  High Contrast Mode
Wind Gusting 00 knots
03
July 05, 2015 10:58 AM EDT
Weather Information
Wind Direction
  110 °
Wind Speed
  03 kt (3 mph)
Wind Gust
  00 kt (0 mph)
Altimeter
30.11 in
Visibility
10 SM
Temperature
22° C
72° F
Dewpoint
16° C
61° F
Humidity
69%
1hr Rain Fall
00.00 in.
24hr Rain Fall
00.00 in.
Sky Condition
Clear
VFR

METAR KI69 051458Z AUTO 11003KT 10SM CLR 22/16 A3011 RMK AO1

*Background is not an actual portrayal of the airport.